Time;durP1;ratioP1;P1;durP2;ratioP2;P2;SDS_P1;SDS_P2;PMS_P1;PMS_P2;Temp;Humidity;BMP_temperature;BMP_pressure;BME280_temperature;BME280_humidity;BME280_pressure;Samples;Min_cycle;Max_cycle;Signal;HPM_P1;HPM_P2
2021/05/10 00:00:49;;;;;;;2.40;2.20;;;19.10;58.60;;;;;;5055373;28;20179;-69
2021/05/10 00:03:14;;;;;;;2.33;2.13;;;19.10;58.60;;;;;;5055898;28;20268;-69
2021/05/10 00:05:40;;;;;;;2.53;2.33;;;19.10;58.60;;;;;;5054754;28;20606;-68
2021/05/10 00:08:07;;;;;;;2.13;2.03;;;19.10;58.60;;;;;;5055307;28;20183;-68
2021/05/10 00:10:32;;;;;;;2.45;2.28;;;19.10;58.60;;;;;;5055129;28;20633;-67
2021/05/10 00:12:58;;;;;;;2.10;2.00;;;19.10;58.60;;;;;;5054821;28;20186;-66
2021/05/10 00:15:24;;;;;;;2.00;1.90;;;19.10;58.60;;;;;;5055294;28;20171;-66
2021/05/10 00:17:49;;;;;;;2.47;2.22;;;19.10;58.60;;;;;;5054872;28;20171;-66
2021/05/10 00:20:14;;;;;;;2.20;2.10;;;19.10;58.60;;;;;;5054552;28;20262;-67
2021/05/10 00:22:40;;;;;;;2.60;2.40;;;19.10;58.60;;;;;;5054774;28;20230;-69
2021/05/10 00:25:06;;;;;;;2.40;2.30;;;19.10;58.60;;;;;;5055356;28;20172;-68
2021/05/10 00:27:31;;;;;;;2.20;2.10;;;19.10;58.60;;;;;;5054364;28;20175;-68
2021/05/10 00:29:57;;;;;;;1.98;1.88;;;19.20;58.70;;;;;;5055292;28;20175;-67
2021/05/10 00:32:22;;;;;;;2.22;2.13;;;19.10;58.60;;;;;;5055227;28;20236;-68
2021/05/10 00:34:49;;;;;;;1.90;1.80;;;19.10;58.60;;;;;;5054024;28;20186;-68
2021/05/10 00:37:15;;;;;;;2.58;2.38;;;19.10;58.50;;;;;;5054954;28;20179;-68
2021/05/10 00:39:40;;;;;;;2.33;2.13;;;19.10;58.60;;;;;;5054576;28;20633;-70
2021/05/10 00:42:06;;;;;;;2.10;2.00;;;19.10;58.50;;;;;;5054198;28;20219;-69
2021/05/10 00:44:31;;;;;;;2.53;2.33;;;19.10;58.50;;;;;;5054690;28;20164;-69
2021/05/10 00:46:57;;;;;;;1.90;1.80;;;19.10;58.60;;;;;;5054810;28;20179;-68
2021/05/10 00:49:22;;;;;;;2.67;2.47;;;19.10;58.50;;;;;;5036390;28;20232;-67
2021/05/10 00:51:48;;;;;;;2.42;2.10;;;19.10;58.50;;;;;;5054503;28;20226;-66
2021/05/10 00:54:14;;;;;;;2.13;2.03;;;19.10;58.50;;;;;;5054273;28;20175;-66
2021/05/10 00:56:39;;;;;;;2.45;2.25;;;19.10;58.50;;;;;;5054538;28;20182;-68
2021/05/10 00:59:05;;;;;;;2.42;2.20;;;19.10;58.50;;;;;;5054711;28;20261;-69
2021/05/10 01:01:31;;;;;;;2.58;2.38;;;19.10;58.50;;;;;;5035768;28;20282;-70
2021/05/10 01:03:56;;;;;;;2.90;2.70;;;19.10;58.50;;;;;;5054392;28;20183;-70
2021/05/10 01:06:22;;;;;;;2.47;2.17;;;19.10;58.50;;;;;;5054487;28;20186;-68
2021/05/10 01:08:47;;;;;;;2.35;2.17;;;19.10;58.50;;;;;;5053517;28;20206;-68
2021/05/10 01:11:14;;;;;;;2.00;1.90;;;19.10;58.50;;;;;;5054488;28;20179;-67
2021/05/10 01:13:39;;;;;;;1.80;1.70;;;19.10;58.50;;;;;;5053991;28;20537;-66
2021/05/10 01:16:05;;;;;;;2.00;1.90;;;19.10;58.50;;;;;;5035833;28;20167;-67
2021/05/10 01:18:31;;;;;;;2.10;2.00;;;19.10;58.50;;;;;;5054304;28;20262;-66
2021/05/10 01:20:56;;;;;;;2.78;2.05;;;19.10;58.50;;;;;;5036235;28;20179;-67
2021/05/10 01:23:22;;;;;;;2.10;2.00;;;19.10;58.50;;;;;;5002897;28;20214;-67
2021/05/10 01:25:49;;;;;;;2.50;2.30;;;19.10;58.40;;;;;;5003056;28;20174;-69
2021/05/10 01:28:15;;;;;;;2.30;2.10;;;19.10;58.50;;;;;;5054219;28;20179;-68
2021/05/10 01:30:43;;;;;;;2.00;1.90;;;19.00;58.40;;;;;;5053064;28;20171;-67
2021/05/10 01:33:09;;;;;;;2.00;1.90;;;19.00;58.40;;;;;;5053988;28;20270;-67
2021/05/10 01:35:37;;;;;;;2.10;2.00;;;19.00;58.40;;;;;;5053435;28;20243;-67
2021/05/10 01:38:02;;;;;;;1.90;1.80;;;19.00;58.40;;;;;;5053177;28;20308;-68
2021/05/10 01:40:28;;;;;;;2.13;2.00;;;19.00;58.40;;;;;;5053924;28;20258;-70
2021/05/10 01:42:53;;;;;;;2.10;2.00;;;19.00;58.30;;;;;;5053399;28;20259;-68
2021/05/10 01:45:19;;;;;;;2.33;2.13;;;19.00;58.30;;;;;;5053267;28;20641;-69
2021/05/10 01:47:44;;;;;;;2.28;2.17;;;19.00;58.40;;;;;;5053540;28;20643;-67
2021/05/10 01:50:15;;;;;;;2.28;2.13;;;19.10;58.40;;;;;;5053665;28;20183;-67
2021/05/10 01:52:40;;;;;;;1.85;1.75;;;19.00;58.40;;;;;;5052775;28;20507;-66
2021/05/10 01:55:06;;;;;;;2.08;1.98;;;19.00;58.30;;;;;;5053562;28;20202;-66
2021/05/10 01:57:31;;;;;;;2.35;2.15;;;19.00;58.40;;;;;;5052523;28;20229;-68
2021/05/10 01:59:57;;;;;;;2.35;2.20;;;19.00;58.30;;;;;;5053402;28;20206;-68
2021/05/10 02:02:22;;;;;;;2.53;2.33;;;19.10;58.40;;;;;;5053438;28;20238;-68
2021/05/10 02:05:10;;;;;;;2.22;2.13;;;19.00;58.40;;;;;;5052257;28;20171;-70
2021/05/10 02:07:39;;;;;;;2.42;2.22;;;19.00;58.30;;;;;;5052967;28;20600;-68
2021/05/10 02:10:15;;;;;;;2.20;2.10;;;19.00;59.00;;;;;;5053091;28;20629;-67
2021/05/10 02:12:41;;;;;;;2.08;1.98;;;19.00;59.00;;;;;;5052439;28;20175;-65
2021/05/10 02:15:08;;;;;;;2.10;2.00;;;19.00;58.30;;;;;;5053216;28;20226;-66
2021/05/10 02:17:35;;;;;;;2.60;2.17;;;19.00;58.30;;;;;;5053106;28;20171;-66
2021/05/10 02:20:00;;;;;;;1.80;1.70;;;19.00;58.30;;;;;;5052462;28;20187;-67
2021/05/10 02:22:26;;;;;;;1.88;1.77;;;19.00;58.30;;;;;;5052935;28;20272;-69
2021/05/10 02:24:51;;;;;;;1.88;1.77;;;19.00;58.30;;;;;;5052985;28;20163;-68
2021/05/10 02:27:17;;;;;;;2.30;2.10;;;19.00;58.30;;;;;;5052333;28;20175;-68
2021/05/10 02:29:42;;;;;;;2.20;2.05;;;19.00;58.30;;;;;;5052731;28;20179;-67
2021/05/10 02:32:08;;;;;;;2.40;2.25;;;19.00;58.30;;;;;;5052895;28;20229;-67
2021/05/10 02:34:33;;;;;;;1.90;1.80;;;19.00;58.30;;;;;;5052203;28;20252;-68
2021/05/10 02:36:59;;;;;;;2.28;2.03;;;19.00;58.20;;;;;;5053039;28;20172;-68
2021/05/10 02:39:24;;;;;;;3.50;2.03;;;19.00;58.30;;;;;;5052951;28;20593;-68
2021/05/10 02:41:50;;;;;;;2.60;2.20;;;19.00;58.30;;;;;;5051804;28;20187;-70
2021/05/10 02:44:15;;;;;;;2.13;2.03;;;19.00;58.30;;;;;;5052832;28;20179;-68
2021/05/10 02:46:41;;;;;;;2.08;1.98;;;19.00;58.30;;;;;;5052296;28;20192;-68
2021/05/10 02:49:07;;;;;;;1.92;1.83;;;19.00;58.30;;;;;;5052734;28;20202;-67
2021/05/10 02:51:32;;;;;;;2.20;2.10;;;19.00;58.30;;;;;;5052490;28;20182;-66
2021/05/10 02:53:58;;;;;;;2.15;1.92;;;19.00;58.30;;;;;;5052170;28;20179;-67
2021/05/10 02:56:23;;;;;;;2.40;2.30;;;19.00;58.30;;;;;;5052774;28;20221;-67
2021/05/10 02:58:49;;;;;;;1.92;1.83;;;18.90;58.20;;;;;;5052218;28;20175;-68
2021/05/10 03:01:14;;;;;;;2.17;1.98;;;19.00;58.30;;;;;;5051798;28;20218;-70
2021/05/10 03:03:40;;;;;;;1.77;1.67;;;18.90;58.20;;;;;;5053733;28;20206;-70
2021/05/10 03:06:05;;;;;;;1.88;1.77;;;18.90;58.20;;;;;;5056787;28;20202;-70
2021/05/10 03:08:31;;;;;;;1.90;1.80;;;19.00;58.30;;;;;;5055753;28;20262;-67
2021/05/10 03:10:57;;;;;;;2.30;2.20;;;18.90;58.20;;;;;;5056514;28;20167;-68
2021/05/10 03:13:22;;;;;;;2.42;2.22;;;18.90;58.20;;;;;;5056540;28;20270;-66
2021/05/10 03:15:48;;;;;;;2.45;2.25;;;18.90;58.20;;;;;;5055382;28;20607;-66
2021/05/10 03:18:13;;;;;;;2.00;1.90;;;18.90;58.20;;;;;;5056672;28;20178;-66
2021/05/10 03:20:39;;;;;;;2.17;2.08;;;18.90;58.20;;;;;;5056334;28;20171;-67
2021/05/10 03:23:04;;;;;;;2.17;1.98;;;18.90;58.20;;;;;;5055397;28;20227;-68
2021/05/10 03:25:30;;;;;;;1.88;1.77;;;19.00;58.30;;;;;;5056385;28;20176;-68
2021/05/10 03:27:55;;;;;;;1.73;1.63;;;18.90;58.10;;;;;;5056234;28;20198;-68
2021/05/10 03:30:24;;;;;;;1.90;1.80;;;18.90;58.20;;;;;;5055543;28;20167;-67
2021/05/10 03:32:51;;;;;;;2.17;2.00;;;18.90;58.10;;;;;;5056056;28;20220;-67
2021/05/10 03:35:16;;;;;;;1.83;1.63;;;18.90;58.20;;;;;;5056376;28;20182;-67
2021/05/10 03:37:42;;;;;;;1.88;1.77;;;18.90;58.20;;;;;;5055309;28;20179;-68
2021/05/10 03:40:09;;;;;;;2.08;1.98;;;18.90;58.10;;;;;;5054777;28;20179;-69
2021/05/10 03:42:34;;;;;;;1.75;1.65;;;18.90;58.10;;;;;;5055643;28;20598;-70
2021/05/10 03:45:00;;;;;;;1.70;1.60;;;19.00;58.10;;;;;;5055208;28;20172;-68
2021/05/10 03:47:34;;;;;;;1.80;1.70;;;19.00;58.10;;;;;;5056380;28;20189;-68
2021/05/10 03:50:00;;;;;;;2.00;1.90;;;18.90;58.10;;;;;;5055448;28;20181;-66
2021/05/10 03:52:26;;;;;;;2.00;1.90;;;18.90;58.10;;;;;;5056102;28;20247;-66
2021/05/10 03:54:51;;;;;;;1.80;1.70;;;18.90;58.10;;;;;;5055663;28;20175;-67
2021/05/10 03:57:17;;;;;;;1.85;1.75;;;18.90;58.10;;;;;;5055213;28;20233;-67
2021/05/10 03:59:42;;;;;;;1.73;1.63;;;18.90;58.10;;;;;;5055739;28;20229;-70
2021/05/10 04:02:08;;;;;;;1.80;1.70;;;18.90;58.10;;;;;;5055581;28;20238;-70
2021/05/10 04:04:44;;;;;;;1.90;1.80;;;18.90;58.10;;;;;;5054665;28;20698;-69
2021/05/10 04:07:20;;;;;;;1.88;1.70;;;18.90;58.10;;;;;;5055754;28;20593;-69
2021/05/10 04:10:02;;;;;;;1.95;1.85;;;18.90;58.10;;;;;;5055110;28;20179;-67
2021/05/10 04:15:12;;;;;;;1.92;1.83;;;18.90;58.00;;;;;;5055486;28;20687;-66
2021/05/10 04:17:38;;;;;;;1.80;1.70;;;18.90;58.00;;;;;;5055338;28;20175;-65
2021/05/10 04:20:04;;;;;;;1.75;1.65;;;18.90;58.00;;;;;;5054425;28;20179;-68
2021/05/10 04:22:29;;;;;;;1.90;1.80;;;18.90;58.00;;;;;;5055073;28;20273;-67
2021/05/10 04:24:55;;;;;;;1.70;1.60;;;18.90;58.00;;;;;;5055171;28;20246;-68
2021/05/10 04:27:20;;;;;;;1.80;1.70;;;18.90;58.00;;;;;;5054667;28;20175;-68
2021/05/10 04:29:46;;;;;;;1.98;1.77;;;18.90;58.00;;;;;;5054946;28;20174;-67
2021/05/10 04:32:11;;;;;;;1.75;1.65;;;18.90;58.00;;;;;;5054720;28;20691;-67
2021/05/10 04:34:37;;;;;;;1.60;1.50;;;18.90;58.00;;;;;;5054756;28;20262;-67
2021/05/10 04:37:02;;;;;;;1.63;1.52;;;18.90;58.00;;;;;;5055169;28;20955;-68
2021/05/10 04:39:28;;;;;;;1.80;1.70;;;18.90;58.00;;;;;;5054274;28;20222;-69
2021/05/10 04:41:53;;;;;;;1.95;1.85;;;18.90;58.00;;;;;;5054662;28;20256;-70
2021/05/10 04:44:19;;;;;;;1.90;1.80;;;18.90;57.90;;;;;;5055080;28;20640;-69
2021/05/10 04:46:44;;;;;;;1.55;1.45;;;18.90;58.00;;;;;;5053863;28;20175;-67
2021/05/10 04:49:10;;;;;;;1.67;1.58;;;18.90;57.90;;;;;;5054863;28;20217;-67
2021/05/10 04:51:35;;;;;;;1.70;1.60;;;18.90;57.90;;;;;;5054597;28;20232;-66
2021/05/10 04:54:01;;;;;;;1.70;1.60;;;18.90;57.90;;;;;;5054109;28;20657;-67
2021/05/10 04:56:26;;;;;;;1.50;1.40;;;18.90;57.90;;;;;;5054618;28;20656;-68
2021/05/10 04:58:52;;;;;;;1.70;1.60;;;18.90;57.90;;;;;;5054253;28;20172;-69
2021/05/10 05:01:17;;;;;;;1.60;1.50;;;18.90;57.90;;;;;;5053993;28;20184;-70
2021/05/10 05:03:43;;;;;;;1.60;1.50;;;18.90;57.90;;;;;;5054374;28;20218;-69
2021/05/10 05:06:08;;;;;;;1.80;1.70;;;18.90;57.90;;;;;;5054526;28;20175;-69
2021/05/10 05:08:34;;;;;;;1.70;1.60;;;18.90;57.80;;;;;;5053862;28;20631;-68
2021/05/10 05:10:59;;;;;;;2.35;2.15;;;18.90;57.80;;;;;;5054615;28;20167;-67
2021/05/10 05:13:25;;;;;;;1.67;1.58;;;18.90;57.80;;;;;;5054554;28;20194;-65
2021/05/10 05:15:51;;;;;;;1.90;1.80;;;18.90;57.80;;;;;;5053331;28;20216;-74
2021/05/10 05:18:17;;;;;;;1.73;1.63;;;18.90;57.80;;;;;;5054207;28;20237;-71
2021/05/10 05:20:42;;;;;;;1.60;1.50;;;18.90;57.80;;;;;;5053940;28;20182;-72
2021/05/10 05:23:17;;;;;;;1.70;1.50;;;18.90;57.90;;;;;;5052982;28;20231;-71
2021/05/10 05:25:42;;;;;;;1.70;1.60;;;19.00;57.90;;;;;;5053340;28;20351;-72
2021/05/10 05:28:08;;;;;;;1.92;1.70;;;18.90;58.00;;;;;;5053860;28;20171;-69
2021/05/10 05:30:33;;;;;;;1.88;1.70;;;19.00;58.20;;;;;;5052386;28;20183;-72
2021/05/10 05:32:59;;;;;;;1.80;1.70;;;19.00;58.20;;;;;;5053027;28;20175;-72
2021/05/10 05:35:24;;;;;;;1.90;1.67;;;19.00;58.10;;;;;;5053644;28;20236;-74
2021/05/10 05:37:50;;;;;;;2.00;1.70;;;19.10;58.20;;;;;;5052654;28;20211;-69
2021/05/10 05:40:16;;;;;;;1.67;1.58;;;19.10;58.80;;;;;;5053823;28;20704;-73
2021/05/10 05:42:41;;;;;;;1.80;1.70;;;19.10;58.40;;;;;;5052836;28;20213;-73
2021/05/10 05:45:07;;;;;;;1.70;1.60;;;19.10;58.40;;;;;;5053755;28;20170;-76
2021/05/10 05:47:33;;;;;;;2.63;1.63;;;19.10;58.50;;;;;;5053481;28;20273;-76
2021/05/10 05:49:58;;;;;;;1.63;1.52;;;19.10;58.60;;;;;;5052750;28;20176;-74
2021/05/10 05:52:24;;;;;;;3.13;1.73;;;19.10;58.60;;;;;;5053711;28;20538;-73
2021/05/10 05:54:51;;;;;;;1.60;1.50;;;19.10;58.60;;;;;;5035565;28;20163;-72
2021/05/10 05:57:17;;;;;;;1.85;1.75;;;19.10;58.60;;;;;;5035264;28;20270;-72
2021/05/10 05:59:42;;;;;;;1.85;1.75;;;19.10;58.60;;;;;;5053156;28;20275;-73
2021/05/10 06:02:08;;;;;;;2.50;1.67;;;19.10;58.60;;;;;;5035595;28;20191;-73
2021/05/10 06:04:33;;;;;;;1.83;1.73;;;19.10;58.60;;;;;;5052323;28;20183;-73
2021/05/10 06:06:59;;;;;;;2.55;1.77;;;19.10;58.60;;;;;;5053348;28;20630;-72
2021/05/10 06:09:25;;;;;;;1.77;1.67;;;19.10;58.60;;;;;;5053496;28;20240;-70
2021/05/10 06:11:53;;;;;;;1.80;1.70;;;19.10;58.60;;;;;;5052154;28;20175;-72
2021/05/10 06:14:19;;;;;;;1.60;1.50;;;19.10;58.60;;;;;;5053034;28;20668;-72
2021/05/10 06:16:45;;;;;;;5.13;2.00;;;19.10;58.30;;;;;;5052557;28;20179;-68
2021/05/10 06:19:11;;;;;;;2.22;1.63;;;19.20;58.50;;;;;;5052559;28;20266;-71
2021/05/10 06:21:38;;;;;;;3.13;1.50;;;19.20;58.40;;;;;;5034780;28;20514;-72
2021/05/10 06:24:04;;;;;;;1.92;1.50;;;19.20;58.30;;;;;;5018919;28;20254;-71
2021/05/10 06:26:29;;;;;;;1.60;1.50;;;19.20;58.10;;;;;;5051918;28;20171;-72
2021/05/10 06:28:54;;;;;;;2.08;1.88;;;19.20;58.00;;;;;;5052701;28;20175;-72
2021/05/10 06:31:20;;;;;;;1.67;1.58;;;19.20;57.90;;;;;;5053021;28;20167;-72
2021/05/10 06:33:47;;;;;;;1.90;1.50;;;19.20;57.90;;;;;;5051758;28;20179;-71
2021/05/10 06:36:12;;;;;;;1.65;1.40;;;19.30;57.90;;;;;;5052918;28;20579;-71
2021/05/10 06:38:38;;;;;;;2.28;1.45;;;19.30;57.90;;;;;;5052293;28;20645;-71
2021/05/10 06:41:03;;;;;;;2.45;1.73;;;19.30;57.90;;;;;;5051596;28;20171;-68
2021/05/10 06:43:29;;;;;;;2.38;1.40;;;19.30;57.80;;;;;;5052065;28;20207;-68
2021/05/10 06:45:54;;;;;;;1.92;1.63;;;19.30;57.90;;;;;;5051293;28;20175;-67
2021/05/10 06:48:30;;;;;;;1.90;1.70;;;19.30;58.00;;;;;;5052004;28;20175;-67
2021/05/10 06:50:56;;;;;;;1.27;1.17;;;19.30;57.90;;;;;;5052080;28;20186;-67
2021/05/10 06:53:22;;;;;;;2.47;1.50;;;19.30;58.00;;;;;;5051615;28;20178;-67
2021/05/10 06:55:51;;;;;;;1.50;1.15;;;19.40;58.00;;;;;;5051720;28;20175;-69
2021/05/10 06:58:17;;;;;;;2.50;1.60;;;19.40;58.20;;;;;;5052176;28;20504;-70
2021/05/10 07:00:43;;;;;;;2.33;1.30;;;19.40;58.10;;;;;;5051548;28;20719;-69
2021/05/10 07:03:08;;;;;;;1.65;1.50;;;19.40;57.90;;;;;;5051425;28;20357;-69
2021/05/10 07:05:34;;;;;;;2.10;1.42;;;19.40;57.80;;;;;;5052423;28;20258;-69
2021/05/10 07:08:10;;;;;;;1.40;1.30;;;19.40;57.80;;;;;;5051845;28;20667;-69
2021/05/10 07:10:36;;;;;;;2.35;1.48;;;19.40;57.70;;;;;;5052320;28;20177;-71
2021/05/10 07:13:01;;;;;;;3.05;1.42;;;19.40;57.70;;;;;;5052503;28;20533;-72
2021/05/10 07:15:27;;;;;;;1.73;1.45;;;19.30;57.70;;;;;;5052028;28;20182;-70
2021/05/10 07:18:09;;;;;;;2.05;1.40;;;19.40;57.80;;;;;;5052040;28;20175;-70
2021/05/10 07:20:37;;;;;;;3.20;1.48;;;19.40;57.80;;;;;;5052365;28;20633;-69
2021/05/10 07:23:03;;;;;;;3.47;1.50;;;19.40;57.70;;;;;;5051384;28;20241;-70
2021/05/10 07:25:28;;;;;;;2.17;1.52;;;19.40;57.70;;;;;;5052233;28;20301;-71
2021/05/10 07:27:54;;;;;;;2.35;1.33;;;19.40;57.80;;;;;;5051917;28;20175;-71
2021/05/10 07:30:20;;;;;;;2.08;1.20;;;19.40;57.80;;;;;;5051730;28;20167;-72
2021/05/10 07:32:45;;;;;;;2.28;1.50;;;19.40;57.60;;;;;;5052242;28;20179;-71
2021/05/10 07:35:11;;;;;;;1.52;1.30;;;19.40;57.60;;;;;;5051572;28;20178;-70
2021/05/10 07:37:36;;;;;;;3.20;1.30;;;19.50;57.50;;;;;;5051971;28;20194;-70
2021/05/10 07:40:04;;;;;;;2.50;1.33;;;19.60;57.50;;;;;;5051964;28;20171;-70
2021/05/10 07:42:29;;;;;;;3.80;1.35;;;19.60;57.40;;;;;;5051397;28;20260;-70
2021/05/10 07:44:55;;;;;;;1.83;1.35;;;19.60;57.40;;;;;;5051975;28;20183;-69
2021/05/10 07:47:20;;;;;;;2.97;1.17;;;19.70;57.40;;;;;;5052142;28;20179;-69
2021/05/10 07:49:46;;;;;;;1.80;1.40;;;19.60;57.40;;;;;;5052414;28;20183;-69
2021/05/10 07:52:11;;;;;;;1.60;1.50;;;19.60;57.40;;;;;;5055840;28;20167;-70
2021/05/10 07:54:37;;;;;;;1.25;1.10;;;19.60;57.50;;;;;;5055557;28;20540;-72
2021/05/10 07:57:02;;;;;;;1.52;1.15;;;19.70;57.50;;;;;;5055270;28;20747;-71
2021/05/10 07:59:28;;;;;;;1.80;1.45;;;19.70;57.40;;;;;;5055867;28;20171;-70
2021/05/10 08:01:57;;;;;;;2.42;1.13;;;19.70;57.40;;;;;;5055436;28;20534;-69
2021/05/10 08:04:22;;;;;;;1.33;1.13;;;19.60;57.40;;;;;;5054909;28;20180;-69
2021/05/10 08:06:47;;;;;;;2.63;1.35;;;19.60;57.60;;;;;;5055141;28;20175;-70
2021/05/10 08:09:13;;;;;;;1.60;1.48;;;19.50;57.70;;;;;;5055625;28;20641;-71
2021/05/10 08:11:39;;;;;;;1.95;1.35;;;19.50;57.80;;;;;;5054608;28;20260;-71
2021/05/10 08:14:05;;;;;;;1.90;1.10;;;19.40;57.80;;;;;;5055543;28;20228;-71
2021/05/10 08:16:30;;;;;;;1.40;1.30;;;19.40;57.90;;;;;;5055266;28;20199;-70
2021/05/10 08:18:56;;;;;;;1.35;1.25;;;19.50;57.90;;;;;;5054629;28;20175;-70
2021/05/10 08:21:21;;;;;;;1.77;1.30;;;19.40;57.80;;;;;;5055253;28;20176;-69
2021/05/10 08:23:47;;;;;;;2.65;1.08;;;19.40;57.80;;;;;;5054687;28;20289;-70
2021/05/10 08:26:12;;;;;;;2.42;1.38;;;19.40;57.80;;;;;;5054613;28;20499;-71
2021/05/10 08:28:38;;;;;;;1.92;1.30;;;19.40;57.90;;;;;;5055161;28;20179;-71
2021/05/10 08:31:04;;;;;;;1.88;1.52;;;19.40;57.80;;;;;;5055049;28;20637;-71
2021/05/10 08:33:30;;;;;;;1.73;1.35;;;19.40;57.80;;;;;;5054624;28;20179;-70
2021/05/10 08:35:56;;;;;;;1.83;1.33;;;19.40;57.80;;;;;;5055144;28;20191;-70
2021/05/10 08:38:21;;;;;;;3.20;1.30;;;19.40;57.70;;;;;;5054664;28;20229;-70
2021/05/10 08:40:47;;;;;;;1.63;1.45;;;19.50;57.80;;;;;;5054509;28;20258;-71
2021/05/10 08:43:19;;;;;;;1.33;1.10;;;19.50;57.70;;;;;;5037413;28;20211;-70
2021/05/10 08:45:46;;;;;;;1.23;0.98;;;19.50;57.70;;;;;;5053882;28;20182;-69
2021/05/10 08:48:12;;;;;;;1.55;1.23;;;19.50;57.80;;;;;;5036916;28;20270;-69
2021/05/10 08:50:37;;;;;;;1.40;1.30;;;19.40;57.80;;;;;;5054512;28;20263;-70
2021/05/10 08:53:04;;;;;;;2.13;1.48;;;19.40;57.70;;;;;;5053775;28;20182;-71
2021/05/10 08:55:30;;;;;;;1.77;1.33;;;19.50;57.70;;;;;;5055114;28;20569;-71
2021/05/10 08:57:55;;;;;;;1.58;1.30;;;19.50;57.80;;;;;;5054739;28;20701;-70
2021/05/10 09:00:23;;;;;;;1.30;1.20;;;19.40;57.70;;;;;;5053511;28;20232;-70
2021/05/10 09:02:48;;;;;;;1.70;1.60;;;19.40;57.60;;;;;;5053406;28;20210;-69
2021/05/10 09:05:17;;;;;;;1.33;1.20;;;19.50;57.70;;;;;;5020452;28;20179;-69
2021/05/10 09:07:43;;;;;;;1.42;1.20;;;19.50;57.60;;;;;;5053392;28;20550;-69
2021/05/10 09:10:11;;;;;;;2.17;1.60;;;19.50;57.60;;;;;;5054525;28;20171;-71
2021/05/10 09:12:49;;;;;;;2.80;1.30;;;19.50;57.70;;;;;;5054258;28;20203;-71
2021/05/10 09:15:19;;;;;;;1.55;1.42;;;19.50;57.70;;;;;;5053695;28;20187;-71
2021/05/10 09:17:46;;;;;;;1.40;1.30;;;19.50;57.70;;;;;;5053873;28;20198;-70
2021/05/10 09:20:16;;;;;;;1.02;1.02;;;19.50;57.70;;;;;;5054120;28;20175;-70
2021/05/10 09:22:48;;;;;;;1.40;1.30;;;19.50;57.70;;;;;;5052872;28;20312;-70
2021/05/10 09:25:14;;;;;;;1.67;1.38;;;19.60;57.70;;;;;;5054465;28;20271;-71
2021/05/10 09:27:41;;;;;;;1.20;1.10;;;19.60;57.70;;;;;;5053092;28;20266;-71
2021/05/10 09:30:21;;;;;;;1.33;1.23;;;19.60;57.70;;;;;;5019790;28;20250;-72
2021/05/10 09:32:53;;;;;;;1.20;1.10;;;19.50;57.70;;;;;;5053347;28;20179;-71
2021/05/10 09:35:24;;;;;;;1.42;1.30;;;19.50;57.70;;;;;;5036557;28;20171;-70
2021/05/10 09:38:03;;;;;;;1.67;1.02;;;19.50;57.70;;;;;;5053677;28;20179;-70
2021/05/10 09:40:45;;;;;;;1.10;1.00;;;19.50;57.70;;;;;;5053826;28;20582;-70
2021/05/10 09:43:11;;;;;;;0.90;0.90;;;19.50;57.70;;;;;;5052945;28;20728;-70
2021/05/10 09:45:45;;;;;;;1.92;1.30;;;19.50;57.70;;;;;;5053737;28;20186;-69
2021/05/10 09:48:17;;;;;;;3.03;1.35;;;19.50;57.70;;;;;;5053732;28;20171;-69
2021/05/10 09:50:47;;;;;;;1.38;1.20;;;19.50;57.70;;;;;;5052439;28;20669;-69
2021/05/10 09:53:16;;;;;;;1.17;1.08;;;19.60;57.70;;;;;;5053509;28;20183;-71
2021/05/10 09:55:54;;;;;;;1.60;1.33;;;19.60;57.60;;;;;;5052963;28;20258;-71
2021/05/10 09:58:20;;;;;;;1.40;1.30;;;19.60;57.60;;;;;;5053449;28;20530;-71
2021/05/10 10:00:47;;;;;;;1.08;1.00;;;19.60;57.60;;;;;;5053116;28;20183;-69
2021/05/10 10:03:29;;;;;;;1.30;1.20;;;19.60;57.60;;;;;;5034659;28;20214;-70
2021/05/10 10:05:56;;;;;;;1.10;1.10;;;19.60;57.50;;;;;;5052948;28;20229;-68
2021/05/10 10:08:22;;;;;;;1.33;1.23;;;19.60;57.50;;;;;;5053508;28;20178;-70
2021/05/10 10:10:48;;;;;;;1.05;1.05;;;19.60;57.50;;;;;;5052206;28;20205;-71
2021/05/10 10:13:15;;;;;;;1.20;1.20;;;19.60;57.60;;;;;;5052907;28;20564;-72
2021/05/10 10:15:41;;;;;;;1.55;1.45;;;19.60;57.60;;;;;;5052865;28;20187;-70
2021/05/10 10:18:07;;;;;;;1.20;1.10;;;19.60;57.60;;;;;;5052427;28;20267;-71
2021/05/10 10:20:33;;;;;;;1.58;1.10;;;19.60;57.60;;;;;;5034942;28;20190;-71
2021/05/10 10:22:59;;;;;;;1.48;1.05;;;19.60;57.60;;;;;;5018470;28;20227;-71
2021/05/10 10:25:24;;;;;;;2.00;1.30;;;19.60;57.60;;;;;;5052530;28;20250;-71
2021/05/10 10:27:50;;;;;;;1.85;1.35;;;19.60;57.60;;;;;;5052837;28;20709;-71
2021/05/10 10:30:16;;;;;;;1.35;1.23;;;19.60;57.60;;;;;;5053074;28;20171;-73
2021/05/10 10:32:42;;;;;;;1.30;1.20;;;19.70;57.50;;;;;;5034022;28;20324;-71
2021/05/10 10:35:08;;;;;;;1.33;1.23;;;19.70;57.40;;;;;;5018727;28;20705;-71
2021/05/10 10:37:34;;;;;;;1.15;1.05;;;19.80;57.40;;;;;;5018399;28;20711;-70
2021/05/10 10:40:03;;;;;;;2.63;1.20;;;19.80;57.30;;;;;;5018036;28;20182;-70
2021/05/10 10:42:32;;;;;;;1.30;1.30;;;19.90;57.20;;;;;;5052888;28;20206;-70
2021/05/10 10:44:59;;;;;;;1.20;1.10;;;19.90;57.20;;;;;;5052030;28;20175;-70
2021/05/10 10:47:44;;;;;;;1.00;0.90;;;19.90;57.30;;;;;;5052165;28;20175;-68
2021/05/10 10:50:16;;;;;;;2.45;1.10;;;19.80;57.30;;;;;;5051915;28;20653;-69
2021/05/10 10:52:51;;;;;;;1.33;1.23;;;19.80;57.30;;;;;;5051750;28;20202;-71
2021/05/10 10:55:20;;;;;;;1.13;1.02;;;19.80;57.30;;;;;;5052718;28;20369;-71
2021/05/10 10:57:45;;;;;;;1.63;1.30;;;19.80;57.30;;;;;;5052225;28;20216;-71
2021/05/10 11:00:14;;;;;;;1.45;1.20;;;19.90;57.30;;;;;;5051687;28;20643;-69
2021/05/10 11:02:41;;;;;;;1.40;1.15;;;19.90;57.50;;;;;;5052414;28;20218;-69
2021/05/10 11:05:10;;;;;;;1.52;1.42;;;19.90;57.60;;;;;;5052477;28;20179;-73
2021/05/10 11:07:56;;;;;;;4.45;1.35;;;19.90;57.60;;;;;;5051581;28;20534;-71
2021/05/10 11:10:51;;;;;;;1.90;1.00;;;19.90;57.70;;;;;;5052458;28;20643;-72
2021/05/10 11:13:38;;;;;;;1.38;1.17;;;19.80;57.90;;;;;;5051695;28;20226;-70
2021/05/10 11:16:11;;;;;;;1.42;1.00;;;19.80;57.90;;;;;;5052383;28;20233;-68
2021/05/10 11:18:55;;;;;;;1.10;1.08;;;19.80;57.90;;;;;;5052197;28;20191;-69
2021/05/10 11:21:23;;;;;;;1.20;1.10;;;19.90;58.00;;;;;;5052093;28;20179;-71
2021/05/10 11:24:01;;;;;;;1.70;1.10;;;19.90;57.90;;;;;;5051777;28;20234;-71
2021/05/10 11:26:46;;;;;;;2.17;1.08;;;19.90;57.90;;;;;;5056482;28;20175;-74
2021/05/10 11:29:26;;;;;;;1.77;1.55;;;19.90;58.00;;;;;;5055773;28;20186;-75
2021/05/10 11:31:55;;;;;;;2.13;1.10;;;19.80;57.90;;;;;;5056008;28;20185;-73
2021/05/10 11:34:30;;;;;;;4.60;1.60;;;19.90;58.20;;;;;;5055601;28;20185;-73
2021/05/10 11:36:55;;;;;;;2.65;1.40;;;19.80;58.20;;;;;;5056002;28;20228;-71
2021/05/10 11:39:24;;;;;;;1.98;1.35;;;19.80;58.40;;;;;;5056211;28;20175;-71
2021/05/10 11:41:51;;;;;;;1.55;1.40;;;19.80;58.60;;;;;;5054941;28;20207;-69
2021/05/10 11:44:23;;;;;;;2.05;1.30;;;19.70;58.60;;;;;;5037962;28;20215;-69
2021/05/10 11:46:51;;;;;;;2.10;1.25;;;19.70;58.70;;;;;;5055885;28;20232;-69
2021/05/10 11:49:23;;;;;;;4.57;1.60;;;19.70;58.90;;;;;;5055436;28;20210;-70
2021/05/10 11:51:49;;;;;;;2.42;1.30;;;19.60;58.80;;;;;;5055645;28;20250;-68
2021/05/10 11:54:14;;;;;;;3.85;1.10;;;19.60;58.90;;;;;;5055831;28;20262;-70
2021/05/10 11:56:46;;;;;;;1.13;1.13;;;19.60;59.00;;;;;;5055070;28;20197;-71
2021/05/10 11:59:32;;;;;;;2.95;1.23;;;19.60;59.00;;;;;;5039239;28;20171;-70
2021/05/10 12:01:57;;;;;;;1.52;1.23;;;19.60;59.00;;;;;;5055602;28;20666;-70
2021/05/10 12:04:30;;;;;;;1.67;1.25;;;19.60;59.00;;;;;;5055094;28;20179;-69
2021/05/10 12:06:56;;;;;;;1.38;1.02;;;19.60;59.00;;;;;;5055242;28;20205;-69
2021/05/10 12:09:40;;;;;;;2.75;1.17;;;19.60;58.80;;;;;;5055250;28;20175;-71
2021/05/10 12:12:17;;;;;;;1.73;1.05;;;19.70;58.60;;;;;;5055493;28;20637;-72
2021/05/10 12:14:44;;;;;;;2.03;1.00;;;19.80;58.50;;;;;;5055467;28;20181;-72
2021/05/10 12:17:11;;;;;;;1.58;1.10;;;19.80;58.50;;;;;;5055001;28;20179;-71
2021/05/10 12:20:00;;;;;;;1.58;1.48;;;19.80;58.40;;;;;;5053674;28;20637;-71
2021/05/10 12:22:27;;;;;;;2.58;1.50;;;19.80;58.30;;;;;;5049033;28;20705;-71
2021/05/10 12:25:06;;;;;;;3.65;1.42;;;19.90;58.30;;;;;;5054197;28;20185;-71
2021/05/10 12:27:38;;;;;;;1.25;1.15;;;19.90;58.20;;;;;;5055102;28;20178;-72
2021/05/10 12:30:12;;;;;;;1.25;1.13;;;19.90;58.20;;;;;;5054670;28;20634;-73
2021/05/10 12:32:41;;;;;;;2.72;1.20;;;19.90;58.10;;;;;;5054490;28;20176;-72
2021/05/10 12:35:08;;;;;;;2.67;1.30;;;20.00;58.00;;;;;;5054818;28;20198;-72
2021/05/10 12:37:40;;;;;;;2.25;1.17;;;20.00;58.00;;;;;;5054026;28;20656;-70
2021/05/10 12:40:07;;;;;;;2.38;1.30;;;19.90;58.10;;;;;;5055012;28;20171;-70
2021/05/10 12:42:32;;;;;;;2.35;1.17;;;19.90;58.10;;;;;;5054516;28;20219;-71
2021/05/10 12:45:03;;;;;;;1.50;1.10;;;20.00;58.20;;;;;;5036635;28;20171;-69
2021/05/10 12:47:49;;;;;;;1.30;1.20;;;20.10;57.90;;;;;;5054800;28;20186;-68
2021/05/10 12:50:37;;;;;;;1.23;1.02;;;20.20;57.90;;;;;;5055172;28;20220;-71
2021/05/10 12:53:03;;;;;;;2.45;1.35;;;20.20;57.80;;;;;;5054032;28;20175;-72